Salina Municipal Airport
KSLN : now visible

Airfield :











YOU CAN JOIN US ON...

 
LOGIN :

Register | Disclaimer

   EN    FR    IT 

 









Legend :    VFR   Marginal VFR   IFR   Intensive IFR   Very Intensive IFR
Visi :
Ceiling :
>= 8 km
>= 3000ft
5 to 8 km
1000 to 3000 ft
1500m to 5 km
500 to 1000 ft
800 to 1500m
200 to 500 ft
< 800m
< 200 ft
Symbols :   Thunderstorms  Fog  Heavy snow  Heavy precipitations  Wind > 20 kt






- Airport Elevation : 1288 ft
- IATA code : SLN


KSLN - Salina Municipal

CURRENT METAR :
  • 120453Z 17016G29KT 10SM CLR 07/00 A3006 RMK AO2 PK WND 17029/0446 SLP184 T00720000

EXPIRED METARs :
  • 120353Z 17018G25KT 10SM CLR 07/00 A3008 RMK AO2 PK WND 17030/0258 SLP194 T00670000
  • 120253Z 18016G27KT 10SM CLR 07/M01 A3012 RMK AO2 PK WND 17028/0204 SLP207 T00671006 58017

TAF KSLN
Valid from the 12 at 00:00 until the 13 at 00:00 UTC


112320Z 1200/1224 17013G20KT P6SM SKC
FM120200 17014G22KT P6SM FEW200 WS020/19045KT
FM120400 17016G24KT P6SM BKN020 WS020/20050KT
FM120900 19017G25KT P6SM OVC030 WS020/22045KT
FM121500 21014KT P6SM SCT035



MET'MAP, your aeronautical weather chart ! - Copyright ORBIFLY December 2007 - Disclaimer

ORBIFLY MET'MAP TEAM :

Programming & Development : Alexandra Zaïnal
Concept & original design : Baudouin d'Aumeries
Assistance for programming : Marc-Olivier Méhu
Technical & hardware support : Manuel Goepfert

Contact : metmap@orbifly.com




SOURCES & CREDITS :

   NOAA       Earth
Advisory